Terminal Aerodrome Forecast
Issued by NWS Sioux Falls, SD

Home | Current Version | Previous Version | Text Only | Print | Product List | Glossary On
Versions: 1 2 3 4 5 6 7 8 9 10 11 12 13 14 15 16 17
972
FTUS43 KFSD 192342
TAFHON
TAF
KHON 192342Z 2000/2024 02013G19KT 1 1/2SM -SN SCT010 OVC025
     FM200300 02012G18KT 1/2SM SN BKN008 OVC025
     FM200800 35012KT 1 1/2SM -SN OVC015
     FM201200 34012KT P6SM OVC035
     FM201500 33014G20KT P6SM BKN035
     FM202200 31012KT P6SM BKN060=

USA.gov is the U.S. government's official web portal to all federal, state and local government web resources and services.